sensor_id;sensor_type;location;lat;lon;timestamp;P1;durP1;ratioP1;P2;durP2;ratioP2
78732;SDS011;68056;52.530;5.454;2023-08-01T00:07:33;2.95;;;1.15;;
78732;SDS011;68056;52.530;5.454;2023-08-01T00:10:02;3.88;;;1.50;;
78732;SDS011;68056;52.530;5.454;2023-08-01T00:13:02;4.30;;;1.88;;
78732;SDS011;68056;52.530;5.454;2023-08-01T00:15:46;6.07;;;2.03;;
78732;SDS011;68056;52.530;5.454;2023-08-01T00:19:00;4.03;;;1.25;;
78732;SDS011;68056;52.530;5.454;2023-08-01T00:24:42;5.80;;;1.35;;
78732;SDS011;68056;52.530;5.454;2023-08-01T00:31:00;2.47;;;1.27;;
78732;SDS011;68056;52.530;5.454;2023-08-01T00:41:23;5.63;;;1.48;;
78732;SDS011;68056;52.530;5.454;2023-08-01T00:51:10;3.65;;;1.48;;
78732;SDS011;68056;52.530;5.454;2023-08-01T00:54:04;4.05;;;1.45;;
78732;SDS011;68056;52.530;5.454;2023-08-01T01:00:32;3.67;;;1.45;;
78732;SDS011;68056;52.530;5.454;2023-08-01T01:03:34;5.63;;;1.50;;
78732;SDS011;68056;52.530;5.454;2023-08-01T01:10:01;3.97;;;1.80;;
78732;SDS011;68056;52.530;5.454;2023-08-01T01:13:06;7.35;;;1.77;;
78732;SDS011;68056;52.530;5.454;2023-08-01T01:19:16;4.22;;;1.65;;
78732;SDS011;68056;52.530;5.454;2023-08-01T01:25:36;4.63;;;1.88;;
78732;SDS011;68056;52.530;5.454;2023-08-01T01:31:34;6.65;;;2.03;;
78732;SDS011;68056;52.530;5.454;2023-08-01T01:34:32;4.20;;;1.73;;
78732;SDS011;68056;52.530;5.454;2023-08-01T01:54:06;5.57;;;2.00;;
78732;SDS011;68056;52.530;5.454;2023-08-01T02:00:14;6.40;;;1.75;;
78732;SDS011;68056;52.530;5.454;2023-08-01T02:03:00;5.30;;;2.15;;
78732;SDS011;68056;52.530;5.454;2023-08-01T02:05:28;6.00;;;1.83;;
78732;SDS011;68056;52.530;5.454;2023-08-01T02:14:38;6.93;;;2.88;;
78732;SDS011;68056;52.530;5.454;2023-08-01T02:24:05;3.60;;;2.15;;
78732;SDS011;68056;52.530;5.454;2023-08-01T02:27:22;7.15;;;2.47;;
78732;SDS011;68056;52.530;5.454;2023-08-01T02:30:10;5.80;;;2.28;;
78732;SDS011;68056;52.530;5.454;2023-08-01T02:32:36;4.28;;;1.98;;
78732;SDS011;68056;52.530;5.454;2023-08-01T02:35:24;4.88;;;1.60;;
78732;SDS011;68056;52.530;5.454;2023-08-01T02:38:12;3.67;;;1.13;;
78732;SDS011;68056;52.530;5.454;2023-08-01T02:40:59;2.90;;;0.85;;
78732;SDS011;68056;52.530;5.454;2023-08-01T02:43:39;2.63;;;0.85;;
78732;SDS011;68056;52.530;5.454;2023-08-01T02:50:10;3.90;;;1.40;;
78732;SDS011;68056;52.530;5.454;2023-08-01T03:10:18;3.38;;;1.00;;
78732;SDS011;68056;52.530;5.454;2023-08-01T03:13:09;1.73;;;0.90;;
78732;SDS011;68056;52.530;5.454;2023-08-01T03:19:07;3.10;;;0.77;;
78732;SDS011;68056;52.530;5.454;2023-08-01T04:02:02;4.55;;;1.20;;
78732;SDS011;68056;52.530;5.454;2023-08-01T04:11:59;5.10;;;1.38;;
78732;SDS011;68056;52.530;5.454;2023-08-01T04:14:46;4.10;;;1.27;;
78732;SDS011;68056;52.530;5.454;2023-08-01T04:27:18;7.50;;;2.58;;
78732;SDS011;68056;52.530;5.454;2023-08-01T04:29:44;7.95;;;3.05;;
78732;SDS011;68056;52.530;5.454;2023-08-01T04:32:10;4.53;;;2.20;;
78732;SDS011;68056;52.530;5.454;2023-08-01T04:34:38;4.10;;;1.70;;
78732;SDS011;68056;52.530;5.454;2023-08-01T04:37:06;3.97;;;1.20;;
78732;SDS011;68056;52.530;5.454;2023-08-01T04:39:38;2.80;;;1.30;;
78732;SDS011;68056;52.530;5.454;2023-08-01T04:42:04;3.97;;;1.20;;
78732;SDS011;68056;52.530;5.454;2023-08-01T04:47:44;1.67;;;1.25;;
78732;SDS011;68056;52.530;5.454;2023-08-01T04:50:38;4.38;;;1.10;;
78732;SDS011;68056;52.530;5.454;2023-08-01T04:53:15;5.43;;;1.45;;
78732;SDS011;68056;52.530;5.454;2023-08-01T04:55:57;5.13;;;1.40;;
78732;SDS011;68056;52.530;5.454;2023-08-01T04:58:40;2.38;;;1.35;;
78732;SDS011;68056;52.530;5.454;2023-08-01T05:04:50;4.55;;;1.92;;
78732;SDS011;68056;52.530;5.454;2023-08-01T05:07:34;3.72;;;1.70;;
78732;SDS011;68056;52.530;5.454;2023-08-01T05:10:40;7.30;;;1.80;;
78732;SDS011;68056;52.530;5.454;2023-08-01T05:13:34;7.47;;;2.05;;
78732;SDS011;68056;52.530;5.454;2023-08-01T05:22:19;6.50;;;2.38;;
78732;SDS011;68056;52.530;5.454;2023-08-01T05:25:22;5.97;;;2.17;;
78732;SDS011;68056;52.530;5.454;2023-08-01T05:31:39;5.80;;;2.50;;
78732;SDS011;68056;52.530;5.454;2023-08-01T05:46:53;6.60;;;1.77;;
78732;SDS011;68056;52.530;5.454;2023-08-01T05:49:32;7.13;;;2.28;;
78732;SDS011;68056;52.530;5.454;2023-08-01T05:52:22;7.28;;;2.25;;
78732;SDS011;68056;52.530;5.454;2023-08-01T05:54:57;10.23;;;2.58;;
78732;SDS011;68056;52.530;5.454;2023-08-01T05:57:33;6.28;;;1.92;;
78732;SDS011;68056;52.530;5.454;2023-08-01T06:00:05;7.10;;;1.92;;
78732;SDS011;68056;52.530;5.454;2023-08-01T06:02:48;5.20;;;2.53;;
78732;SDS011;68056;52.530;5.454;2023-08-01T06:05:16;8.23;;;2.30;;
78732;SDS011;68056;52.530;5.454;2023-08-01T06:07:48;4.45;;;2.50;;
78732;SDS011;68056;52.530;5.454;2023-08-01T06:10:13;5.10;;;2.00;;
78732;SDS011;68056;52.530;5.454;2023-08-01T06:12:49;6.25;;;2.33;;
78732;SDS011;68056;52.530;5.454;2023-08-01T06:15:23;6.90;;;2.17;;
78732;SDS011;68056;52.530;5.454;2023-08-01T06:18:03;3.75;;;1.75;;
78732;SDS011;68056;52.530;5.454;2023-08-01T06:20:32;6.28;;;2.28;;
78732;SDS011;68056;52.530;5.454;2023-08-01T06:22:58;5.53;;;2.15;;
78732;SDS011;68056;52.530;5.454;2023-08-01T06:25:30;7.93;;;2.38;;
78732;SDS011;68056;52.530;5.454;2023-08-01T06:28:06;6.68;;;2.42;;
78732;SDS011;68056;52.530;5.454;2023-08-01T06:30:47;3.90;;;2.00;;
78732;SDS011;68056;52.530;5.454;2023-08-01T06:33:13;6.18;;;2.13;;
78732;SDS011;68056;52.530;5.454;2023-08-01T06:35:39;5.82;;;2.03;;
78732;SDS011;68056;52.530;5.454;2023-08-01T06:38:05;4.47;;;1.80;;
78732;SDS011;68056;52.530;5.454;2023-08-01T06:40:31;4.72;;;1.98;;
78732;SDS011;68056;52.530;5.454;2023-08-01T06:42:56;6.18;;;2.13;;
78732;SDS011;68056;52.530;5.454;2023-08-01T06:45:23;3.15;;;1.73;;
78732;SDS011;68056;52.530;5.454;2023-08-01T06:47:56;6.18;;;2.35;;
78732;SDS011;68056;52.530;5.454;2023-08-01T06:50:25;6.00;;;1.60;;
78732;SDS011;68056;52.530;5.454;2023-08-01T06:55:40;5.55;;;2.05;;
78732;SDS011;68056;52.530;5.454;2023-08-01T06:58:08;2.75;;;1.20;;
78732;SDS011;68056;52.530;5.454;2023-08-01T07:00:40;7.38;;;1.90;;
78732;SDS011;68056;52.530;5.454;2023-08-01T07:03:11;4.97;;;1.58;;
78732;SDS011;68056;52.530;5.454;2023-08-01T07:05:45;3.67;;;1.70;;
78732;SDS011;68056;52.530;5.454;2023-08-01T07:08:16;5.35;;;1.95;;
78732;SDS011;68056;52.530;5.454;2023-08-01T07:10:49;5.68;;;1.63;;
78732;SDS011;68056;52.530;5.454;2023-08-01T07:13:43;7.47;;;2.40;;
78732;SDS011;68056;52.530;5.454;2023-08-01T07:19:03;5.63;;;2.17;;
78732;SDS011;68056;52.530;5.454;2023-08-01T07:24:24;5.78;;;1.73;;
78732;SDS011;68056;52.530;5.454;2023-08-01T07:26:54;8.82;;;1.60;;
78732;SDS011;68056;52.530;5.454;2023-08-01T07:29:59;6.60;;;2.10;;
78732;SDS011;68056;52.530;5.454;2023-08-01T07:32:55;5.97;;;1.88;;
78732;SDS011;68056;52.530;5.454;2023-08-01T07:35:26;4.95;;;2.00;;
78732;SDS011;68056;52.530;5.454;2023-08-01T07:38:00;4.50;;;1.92;;
78732;SDS011;68056;52.530;5.454;2023-08-01T07:40:53;3.55;;;1.90;;
78732;SDS011;68056;52.530;5.454;2023-08-01T07:43:36;3.83;;;1.70;;
78732;SDS011;68056;52.530;5.454;2023-08-01T07:46:54;4.28;;;1.85;;
78732;SDS011;68056;52.530;5.454;2023-08-01T07:49:19;8.38;;;2.00;;
78732;SDS011;68056;52.530;5.454;2023-08-01T07:51:47;3.92;;;1.73;;
78732;SDS011;68056;52.530;5.454;2023-08-01T07:54:39;5.65;;;1.70;;
78732;SDS011;68056;52.530;5.454;2023-08-01T07:57:04;5.13;;;1.75;;
78732;SDS011;68056;52.530;5.454;2023-08-01T07:59:42;5.07;;;1.98;;
78732;SDS011;68056;52.530;5.454;2023-08-01T08:02:45;4.32;;;2.03;;
78732;SDS011;68056;52.530;5.454;2023-08-01T08:06:02;4.72;;;1.67;;
78732;SDS011;68056;52.530;5.454;2023-08-01T08:08:48;4.30;;;1.67;;
78732;SDS011;68056;52.530;5.454;2023-08-01T08:11:15;4.75;;;1.77;;
78732;SDS011;68056;52.530;5.454;2023-08-01T08:14:22;5.50;;;1.90;;
78732;SDS011;68056;52.530;5.454;2023-08-01T08:20:46;4.43;;;2.35;;
78732;SDS011;68056;52.530;5.454;2023-08-01T08:27:12;5.93;;;1.60;;
78732;SDS011;68056;52.530;5.454;2023-08-01T08:29:41;5.65;;;1.95;;
78732;SDS011;68056;52.530;5.454;2023-08-01T08:32:17;3.72;;;1.52;;
78732;SDS011;68056;52.530;5.454;2023-08-01T08:34:53;6.25;;;1.70;;
78732;SDS011;68056;52.530;5.454;2023-08-01T08:37:53;3.72;;;1.50;;
78732;SDS011;68056;52.530;5.454;2023-08-01T08:41:21;6.05;;;1.52;;
78732;SDS011;68056;52.530;5.454;2023-08-01T08:54:27;4.85;;;1.67;;
78732;SDS011;68056;52.530;5.454;2023-08-01T08:57:16;2.65;;;1.10;;
78732;SDS011;68056;52.530;5.454;2023-08-01T09:03:52;5.20;;;1.73;;
78732;SDS011;68056;52.530;5.454;2023-08-01T09:06:42;7.85;;;1.92;;
78732;SDS011;68056;52.530;5.454;2023-08-01T09:09:42;6.10;;;1.80;;
78732;SDS011;68056;52.530;5.454;2023-08-01T09:12:10;5.50;;;1.35;;
78732;SDS011;68056;52.530;5.454;2023-08-01T10:05:41;3.70;;;1.35;;
78732;SDS011;68056;52.530;5.454;2023-08-01T10:11:25;2.65;;;1.15;;
78732;SDS011;68056;52.530;5.454;2023-08-01T10:14:13;3.45;;;1.33;;
78732;SDS011;68056;52.530;5.454;2023-08-01T10:20:15;4.38;;;1.40;;
78732;SDS011;68056;52.530;5.454;2023-08-01T10:22:49;3.17;;;1.30;;
78732;SDS011;68056;52.530;5.454;2023-08-01T10:32:00;5.15;;;1.73;;
78732;SDS011;68056;52.530;5.454;2023-08-01T10:34:38;3.13;;;1.40;;
78732;SDS011;68056;52.530;5.454;2023-08-01T10:58:32;4.38;;;1.45;;
78732;SDS011;68056;52.530;5.454;2023-08-01T11:33:24;3.65;;;1.10;;
78732;SDS011;68056;52.530;5.454;2023-08-01T11:38:37;4.93;;;1.52;;
78732;SDS011;68056;52.530;5.454;2023-08-01T11:41:30;4.68;;;1.50;;
78732;SDS011;68056;52.530;5.454;2023-08-01T11:44:51;3.47;;;1.20;;
78732;SDS011;68056;52.530;5.454;2023-08-01T11:48:08;1.67;;;1.13;;
78732;SDS011;68056;52.530;5.454;2023-08-01T11:56:22;3.72;;;1.20;;
78732;SDS011;68056;52.530;5.454;2023-08-01T11:59:13;3.30;;;1.10;;
78732;SDS011;68056;52.530;5.454;2023-08-01T12:04:40;2.75;;;1.23;;
78732;SDS011;68056;52.530;5.454;2023-08-01T12:10:19;3.78;;;1.10;;
78732;SDS011;68056;52.530;5.454;2023-08-01T12:13:34;2.72;;;1.00;;
78732;SDS011;68056;52.530;5.454;2023-08-01T12:19:49;6.03;;;1.58;;
78732;SDS011;68056;52.530;5.454;2023-08-01T12:22:21;3.33;;;1.38;;
78732;SDS011;68056;52.530;5.454;2023-08-01T12:25:04;6.00;;;1.30;;
78732;SDS011;68056;52.530;5.454;2023-08-01T12:30:24;3.75;;;1.50;;
78732;SDS011;68056;52.530;5.454;2023-08-01T13:12:00;3.83;;;1.00;;
78732;SDS011;68056;52.530;5.454;2023-08-01T13:14:49;4.78;;;1.00;;
78732;SDS011;68056;52.530;5.454;2023-08-01T13:29:38;3.47;;;1.00;;
78732;SDS011;68056;52.530;5.454;2023-08-01T13:37:55;4.10;;;0.90;;
78732;SDS011;68056;52.530;5.454;2023-08-01T13:40:29;2.25;;;1.00;;
78732;SDS011;68056;52.530;5.454;2023-08-01T13:43:23;2.63;;;1.02;;
78732;SDS011;68056;52.530;5.454;2023-08-01T14:11:35;2.70;;;1.02;;
78732;SDS011;68056;52.530;5.454;2023-08-01T14:14:07;3.65;;;0.90;;
78732;SDS011;68056;52.530;5.454;2023-08-01T14:16:41;2.08;;;0.90;;
78732;SDS011;68056;52.530;5.454;2023-08-01T14:19:20;4.35;;;0.90;;
78732;SDS011;68056;52.530;5.454;2023-08-01T14:21:48;2.25;;;1.08;;
78732;SDS011;68056;52.530;5.454;2023-08-01T14:24:35;5.05;;;1.40;;
78732;SDS011;68056;52.530;5.454;2023-08-01T14:27:03;2.83;;;0.90;;
78732;SDS011;68056;52.530;5.454;2023-08-01T14:29:29;3.85;;;1.00;;
78732;SDS011;68056;52.530;5.454;2023-08-01T14:31:55;4.38;;;1.33;;
78732;SDS011;68056;52.530;5.454;2023-08-01T14:34:20;4.10;;;1.20;;
78732;SDS011;68056;52.530;5.454;2023-08-01T14:36:46;3.60;;;1.20;;
78732;SDS011;68056;52.530;5.454;2023-08-01T14:39:18;2.35;;;1.23;;
78732;SDS011;68056;52.530;5.454;2023-08-01T14:42:02;3.00;;;1.02;;
78732;SDS011;68056;52.530;5.454;2023-08-01T14:44:31;2.83;;;1.13;;
78732;SDS011;68056;52.530;5.454;2023-08-01T14:46:59;3.10;;;1.15;;
78732;SDS011;68056;52.530;5.454;2023-08-01T14:49:25;3.92;;;1.00;;
78732;SDS011;68056;52.530;5.454;2023-08-01T14:51:52;1.63;;;0.77;;
78732;SDS011;68056;52.530;5.454;2023-08-01T14:57:24;3.40;;;1.23;;
78732;SDS011;68056;52.530;5.454;2023-08-01T15:03:39;2.42;;;1.00;;
78732;SDS011;68056;52.530;5.454;2023-08-01T15:06:08;3.53;;;1.40;;
78732;SDS011;68056;52.530;5.454;2023-08-01T15:16:38;4.70;;;1.50;;
78732;SDS011;68056;52.530;5.454;2023-08-01T15:19:04;3.53;;;1.38;;
78732;SDS011;68056;52.530;5.454;2023-08-01T15:21:30;3.17;;;1.20;;
78732;SDS011;68056;52.530;5.454;2023-08-01T15:23:55;4.07;;;1.50;;
78732;SDS011;68056;52.530;5.454;2023-08-01T15:26:21;5.72;;;1.25;;
78732;SDS011;68056;52.530;5.454;2023-08-01T15:28:46;3.63;;;1.65;;
78732;SDS011;68056;52.530;5.454;2023-08-01T15:31:12;4.43;;;1.70;;
78732;SDS011;68056;52.530;5.454;2023-08-01T15:33:38;6.50;;;1.50;;
78732;SDS011;68056;52.530;5.454;2023-08-01T15:36:05;4.20;;;1.33;;
78732;SDS011;68056;52.530;5.454;2023-08-01T15:38:32;3.75;;;1.67;;
78732;SDS011;68056;52.530;5.454;2023-08-01T15:40:59;4.25;;;1.10;;
78732;SDS011;68056;52.530;5.454;2023-08-01T15:46:15;5.43;;;1.65;;
78732;SDS011;68056;52.530;5.454;2023-08-01T15:49:01;4.82;;;1.05;;
78732;SDS011;68056;52.530;5.454;2023-08-01T15:51:44;4.80;;;1.25;;
78732;SDS011;68056;52.530;5.454;2023-08-01T15:54:09;3.50;;;1.00;;
78732;SDS011;68056;52.530;5.454;2023-08-01T15:56:39;2.22;;;0.95;;
78732;SDS011;68056;52.530;5.454;2023-08-01T15:59:06;1.30;;;0.68;;
78732;SDS011;68056;52.530;5.454;2023-08-01T16:01:32;3.17;;;0.70;;
78732;SDS011;68056;52.530;5.454;2023-08-01T16:03:59;1.23;;;0.77;;
78732;SDS011;68056;52.530;5.454;2023-08-01T16:06:29;2.38;;;0.98;;
78732;SDS011;68056;52.530;5.454;2023-08-01T16:09:07;4.10;;;1.08;;
78732;SDS011;68056;52.530;5.454;2023-08-01T16:11:35;2.28;;;0.82;;
78732;SDS011;68056;52.530;5.454;2023-08-01T16:14:06;1.77;;;0.65;;
78732;SDS011;68056;52.530;5.454;2023-08-01T16:16:31;2.53;;;0.80;;
78732;SDS011;68056;52.530;5.454;2023-08-01T16:18:57;2.33;;;0.75;;
78732;SDS011;68056;52.530;5.454;2023-08-01T16:21:39;3.53;;;0.95;;
78732;SDS011;68056;52.530;5.454;2023-08-01T16:24:10;3.17;;;0.98;;
78732;SDS011;68056;52.530;5.454;2023-08-01T16:26:41;0.68;;;0.68;;
78732;SDS011;68056;52.530;5.454;2023-08-01T16:29:09;3.17;;;0.80;;
78732;SDS011;68056;52.530;5.454;2023-08-01T16:31:36;2.67;;;1.10;;
78732;SDS011;68056;52.530;5.454;2023-08-01T16:34:02;1.13;;;0.75;;
78732;SDS011;68056;52.530;5.454;2023-08-01T16:36:28;3.30;;;0.90;;
78732;SDS011;68056;52.530;5.454;2023-08-01T16:38:56;2.15;;;0.90;;
78732;SDS011;68056;52.530;5.454;2023-08-01T16:41:21;2.17;;;0.90;;
78732;SDS011;68056;52.530;5.454;2023-08-01T16:43:48;2.35;;;0.77;;
78732;SDS011;68056;52.530;5.454;2023-08-01T16:46:20;1.50;;;0.73;;
78732;SDS011;68056;52.530;5.454;2023-08-01T16:48:50;1.55;;;0.80;;
78732;SDS011;68056;52.530;5.454;2023-08-01T16:51:18;2.22;;;1.40;;
78732;SDS011;68056;52.530;5.454;2023-08-01T16:53:49;4.75;;;1.40;;
78732;SDS011;68056;52.530;5.454;2023-08-01T16:59:25;2.80;;;1.40;;
78732;SDS011;68056;52.530;5.454;2023-08-01T17:04:52;1.48;;;1.00;;
78732;SDS011;68056;52.530;5.454;2023-08-01T17:10:11;4.35;;;1.10;;
78732;SDS011;68056;52.530;5.454;2023-08-01T17:13:16;1.02;;;0.88;;
78732;SDS011;68056;52.530;5.454;2023-08-01T17:16:02;1.55;;;0.90;;
78732;SDS011;68056;52.530;5.454;2023-08-01T17:18:38;1.95;;;1.08;;
78732;SDS011;68056;52.530;5.454;2023-08-01T17:21:27;1.83;;;1.00;;
78732;SDS011;68056;52.530;5.454;2023-08-01T17:23:58;2.55;;;0.90;;
78732;SDS011;68056;52.530;5.454;2023-08-01T17:26:28;1.38;;;0.90;;
78732;SDS011;68056;52.530;5.454;2023-08-01T17:29:09;3.58;;;1.15;;
78732;SDS011;68056;52.530;5.454;2023-08-01T17:31:39;3.75;;;1.02;;
78732;SDS011;68056;52.530;5.454;2023-08-01T17:34:13;3.53;;;1.10;;
78732;SDS011;68056;52.530;5.454;2023-08-01T17:36:45;3.88;;;1.08;;
78732;SDS011;68056;52.530;5.454;2023-08-01T17:39:13;5.70;;;1.33;;
78732;SDS011;68056;52.530;5.454;2023-08-01T17:45:27;4.43;;;1.40;;
78732;SDS011;68056;52.530;5.454;2023-08-01T17:51:44;3.60;;;1.35;;
78732;SDS011;68056;52.530;5.454;2023-08-01T17:54:15;2.72;;;1.30;;
78732;SDS011;68056;52.530;5.454;2023-08-01T18:04:12;2.42;;;1.40;;
78732;SDS011;68056;52.530;5.454;2023-08-01T18:06:56;2.35;;;1.30;;
78732;SDS011;68056;52.530;5.454;2023-08-01T18:09:24;3.95;;;1.45;;
78732;SDS011;68056;52.530;5.454;2023-08-01T18:11:57;3.20;;;1.40;;
78732;SDS011;68056;52.530;5.454;2023-08-01T18:14:35;2.60;;;1.17;;
78732;SDS011;68056;52.530;5.454;2023-08-01T18:17:23;2.45;;;1.25;;
78732;SDS011;68056;52.530;5.454;2023-08-01T18:19:48;2.78;;;1.10;;
78732;SDS011;68056;52.530;5.454;2023-08-01T18:22:14;4.90;;;1.27;;
78732;SDS011;68056;52.530;5.454;2023-08-01T18:24:39;1.98;;;1.10;;
78732;SDS011;68056;52.530;5.454;2023-08-01T18:27:08;3.92;;;1.15;;
78732;SDS011;68056;52.530;5.454;2023-08-01T18:29:33;4.10;;;1.40;;
78732;SDS011;68056;52.530;5.454;2023-08-01T18:31:59;1.92;;;1.00;;
78732;SDS011;68056;52.530;5.454;2023-08-01T18:34:25;3.25;;;1.30;;
78732;SDS011;68056;52.530;5.454;2023-08-01T18:43:22;3.58;;;1.33;;
78732;SDS011;68056;52.530;5.454;2023-08-01T18:54:55;4.65;;;1.40;;
78732;SDS011;68056;52.530;5.454;2023-08-01T18:57:28;3.97;;;1.55;;
78732;SDS011;68056;52.530;5.454;2023-08-01T19:00:03;4.70;;;1.42;;
78732;SDS011;68056;52.530;5.454;2023-08-01T19:09:20;4.97;;;1.33;;
78732;SDS011;68056;52.530;5.454;2023-08-01T19:12:07;3.70;;;0.98;;
78732;SDS011;68056;52.530;5.454;2023-08-01T19:14:49;4.80;;;1.10;;
78732;SDS011;68056;52.530;5.454;2023-08-01T19:27:38;8.32;;;1.48;;
78732;SDS011;68056;52.530;5.454;2023-08-01T19:30:25;4.45;;;1.40;;
78732;SDS011;68056;52.530;5.454;2023-08-01T19:32:56;3.85;;;0.95;;
78732;SDS011;68056;52.530;5.454;2023-08-01T19:35:22;3.35;;;1.10;;
78732;SDS011;68056;52.530;5.454;2023-08-01T19:49:23;3.25;;;1.17;;
78732;SDS011;68056;52.530;5.454;2023-08-01T19:59:20;4.40;;;1.02;;
78732;SDS011;68056;52.530;5.454;2023-08-01T20:01:47;2.13;;;1.20;;
78732;SDS011;68056;52.530;5.454;2023-08-01T20:04:13;1.67;;;0.90;;
78732;SDS011;68056;52.530;5.454;2023-08-01T20:06:39;2.85;;;1.20;;
78732;SDS011;68056;52.530;5.454;2023-08-01T20:09:04;3.70;;;1.10;;
78732;SDS011;68056;52.530;5.454;2023-08-01T20:11:38;3.17;;;1.23;;
78732;SDS011;68056;52.530;5.454;2023-08-01T20:14:07;3.17;;;0.85;;
78732;SDS011;68056;52.530;5.454;2023-08-01T20:16:32;2.63;;;1.20;;
78732;SDS011;68056;52.530;5.454;2023-08-01T20:18:58;2.85;;;1.30;;
78732;SDS011;68056;52.530;5.454;2023-08-01T20:21:24;3.58;;;1.10;;
78732;SDS011;68056;52.530;5.454;2023-08-01T20:23:49;3.95;;;1.25;;
78732;SDS011;68056;52.530;5.454;2023-08-01T20:26:15;5.35;;;1.25;;
78732;SDS011;68056;52.530;5.454;2023-08-01T20:28:40;2.20;;;1.20;;
78732;SDS011;68056;52.530;5.454;2023-08-01T20:31:06;2.15;;;1.23;;
78732;SDS011;68056;52.530;5.454;2023-08-01T20:33:32;4.22;;;1.35;;
78732;SDS011;68056;52.530;5.454;2023-08-01T20:35:58;2.05;;;1.30;;
78732;SDS011;68056;52.530;5.454;2023-08-01T20:38:25;3.13;;;1.25;;
78732;SDS011;68056;52.530;5.454;2023-08-01T20:40:52;1.55;;;0.90;;
78732;SDS011;68056;52.530;5.454;2023-08-01T20:43:17;1.60;;;0.95;;
78732;SDS011;68056;52.530;5.454;2023-08-01T20:45:47;3.53;;;0.95;;
78732;SDS011;68056;52.530;5.454;2023-08-01T20:48:15;2.22;;;0.80;;
78732;SDS011;68056;52.530;5.454;2023-08-01T20:50:40;2.83;;;0.80;;
78732;SDS011;68056;52.530;5.454;2023-08-01T20:53:06;1.10;;;0.90;;
78732;SDS011;68056;52.530;5.454;2023-08-01T20:55:33;2.40;;;1.10;;
78732;SDS011;68056;52.530;5.454;2023-08-01T20:58:14;2.90;;;1.13;;
78732;SDS011;68056;52.530;5.454;2023-08-01T21:01:27;2.65;;;1.00;;
78732;SDS011;68056;52.530;5.454;2023-08-01T21:03:58;1.83;;;1.00;;
78732;SDS011;68056;52.530;5.454;2023-08-01T21:06:27;1.60;;;1.10;;
78732;SDS011;68056;52.530;5.454;2023-08-01T21:24:25;4.45;;;1.05;;
78732;SDS011;68056;52.530;5.454;2023-08-01T21:26:51;3.72;;;0.90;;
78732;SDS011;68056;52.530;5.454;2023-08-01T21:31:55;3.30;;;1.10;;
78732;SDS011;68056;52.530;5.454;2023-08-01T21:34:23;3.47;;;1.00;;
78732;SDS011;68056;52.530;5.454;2023-08-01T21:36:52;1.83;;;0.90;;
78732;SDS011;68056;52.530;5.454;2023-08-01T21:39:21;5.25;;;1.60;;
78732;SDS011;68056;52.530;5.454;2023-08-01T21:41:47;3.40;;;1.20;;
78732;SDS011;68056;52.530;5.454;2023-08-01T22:16:43;3.53;;;1.15;;
78732;SDS011;68056;52.530;5.454;2023-08-01T22:23:48;5.97;;;1.10;;
78732;SDS011;68056;52.530;5.454;2023-08-01T22:27:16;4.47;;;1.08;;
78732;SDS011;68056;52.530;5.454;2023-08-01T22:30:23;3.72;;;1.23;;
78732;SDS011;68056;52.530;5.454;2023-08-01T22:36:31;3.42;;;1.00;;
78732;SDS011;68056;52.530;5.454;2023-08-01T22:45:40;3.25;;;1.05;;
78732;SDS011;68056;52.530;5.454;2023-08-01T22:48:30;2.30;;;1.15;;
78732;SDS011;68056;52.530;5.454;2023-08-01T22:54:34;3.25;;;1.35;;
78732;SDS011;68056;52.530;5.454;2023-08-01T22:57:02;2.42;;;0.90;;
78732;SDS011;68056;52.530;5.454;2023-08-01T23:03:26;5.50;;;1.40;;
78732;SDS011;68056;52.530;5.454;2023-08-01T23:12:52;2.60;;;1.20;;
78732;SDS011;68056;52.530;5.454;2023-08-01T23:19:03;6.75;;;1.73;;
78732;SDS011;68056;52.530;5.454;2023-08-01T23:24:58;5.30;;;1.40;;
78732;SDS011;68056;52.530;5.454;2023-08-01T23:27:47;5.95;;;1.35;;
78732;SDS011;68056;52.530;5.454;2023-08-01T23:30:34;4.80;;;1.40;;
78732;SDS011;68056;52.530;5.454;2023-08-01T23:33:49;3.45;;;1.65;;
78732;SDS011;68056;52.530;5.454;2023-08-01T23:36:18;4.45;;;1.35;;
78732;SDS011;68056;52.530;5.454;2023-08-01T23:38:50;5.25;;;2.05;;
78732;SDS011;68056;52.530;5.454;2023-08-01T23:41:27;3.40;;;1.40;;
78732;SDS011;68056;52.530;5.454;2023-08-01T23:43:58;5.45;;;1.50;;
78732;SDS011;68056;52.530;5.454;2023-08-01T23:46:40;3.80;;;1.15;;
78732;SDS011;68056;52.530;5.454;2023-08-01T23:49:24;6.97;;;1.98;;
78732;SDS011;68056;52.530;5.454;2023-08-01T23:51:52;4.65;;;1.48;;
78732;SDS011;68056;52.530;5.454;2023-08-01T23:54:26;4.63;;;1.58;;
